map of KAVK home
KAVK - Airport
Location
City:  Alva, Oklahoma, United States
Name:Alva Regional
ICAO:KAVK
FAA LID:AVK

Details
Type:Airport (Airfield)
Use:Public/Civil
Latitude:3646'24"N (36.773367)
Longitude:9840'13"W (-98.670186)
Datum:WGS 1984
Elevation:1476 ft (450 m)
Variation:4.35E (WMM2015v2 magnetic declination)
-0.09 annual change
Runways:2
Longest:5001 × 75 ft (1524 × 23 m), paved

Time
Time Zone:UTC-6 (DST-5)
Local Time:

Weather
METAR:KAVK 041415Z AUTO 36013KT 7SM OVC007 03/02 A2989 RMK AO2 LTG DSNT N

Related Locations
Nearby:
Farthest:RRG: 10839 mi / 17443 km
Plaine Corail [Sir Gatan Duval Airport (Plaine Corail Airport)], Rodrigues Island, MU

Find:

   beyond  
but within

Other Information
Maps:
NOTAMs:
Links:
Sources:

  
  • flag of United States
  • flag of Oklahoma
  

Sectional Chart

Flight Planning
at skyvector.com

Satellite Image

Google Maps Satellite view

 

Copyright © 2004-2019 Karl L. Swartz. All rights reserved.
The Great Circle Mapper name and logo are trademarks of the Great Circle Mapper.
All other trademarks mentioned herein belong to their respective owners.
Please see credits for attibutions and further copyright information.

  Follow gcmap on Facebook Follow gcmap on Twitter GCmap on LinkedIn

hCard Microformat

Geo Microformat